sensor_id;sensor_type;location;lat;lon;timestamp;temperature;humidity
7784;DHT22;19359;51.402;6.778;2024-03-17T00:02:03;4.30;1.00
7784;DHT22;19359;51.402;6.778;2024-03-17T00:04:30;4.30;1.00
7784;DHT22;19359;51.402;6.778;2024-03-17T00:06:58;4.20;1.00
7784;DHT22;19359;51.402;6.778;2024-03-17T00:09:24;4.20;1.00
7784;DHT22;19359;51.402;6.778;2024-03-17T00:11:51;4.20;1.00
7784;DHT22;19359;51.402;6.778;2024-03-17T00:14:19;4.20;1.00
7784;DHT22;19359;51.402;6.778;2024-03-17T00:16:47;4.20;1.00
7784;DHT22;19359;51.402;6.778;2024-03-17T00:19:14;4.20;1.00
7784;DHT22;19359;51.402;6.778;2024-03-17T00:21:42;4.20;1.00
7784;DHT22;19359;51.402;6.778;2024-03-17T00:24:09;4.90;1.00
7784;DHT22;19359;51.402;6.778;2024-03-17T00:26:36;4.10;1.00
7784;DHT22;19359;51.402;6.778;2024-03-17T00:29:02;4.00;1.00
7784;DHT22;19359;51.402;6.778;2024-03-17T00:31:31;4.10;1.00
7784;DHT22;19359;51.402;6.778;2024-03-17T00:33:57;4.10;1.00
7784;DHT22;19359;51.402;6.778;2024-03-17T00:36:24;4.00;1.00
7784;DHT22;19359;51.402;6.778;2024-03-17T00:38:50;4.10;1.00
7784;DHT22;19359;51.402;6.778;2024-03-17T00:41:18;4.10;1.00
7784;DHT22;19359;51.402;6.778;2024-03-17T00:43:44;4.10;1.00
7784;DHT22;19359;51.402;6.778;2024-03-17T00:46:11;4.10;1.00
7784;DHT22;19359;51.402;6.778;2024-03-17T00:48:37;4.00;1.00
7784;DHT22;19359;51.402;6.778;2024-03-17T00:51:05;4.10;1.00
7784;DHT22;19359;51.402;6.778;2024-03-17T00:53:30;4.10;1.00
7784;DHT22;19359;51.402;6.778;2024-03-17T00:55:57;4.10;1.00
7784;DHT22;19359;51.402;6.778;2024-03-17T00:58:25;4.20;1.00
7784;DHT22;19359;51.402;6.778;2024-03-17T01:00:52;4.20;1.00
7784;DHT22;19359;51.402;6.778;2024-03-17T01:03:18;4.20;1.00
7784;DHT22;19359;51.402;6.778;2024-03-17T01:08:13;4.20;1.00
7784;DHT22;19359;51.402;6.778;2024-03-17T01:10:41;4.10;1.00
7784;DHT22;19359;51.402;6.778;2024-03-17T01:13:08;4.10;1.00
7784;DHT22;19359;51.402;6.778;2024-03-17T01:15:37;4.10;1.00
7784;DHT22;19359;51.402;6.778;2024-03-17T01:18:03;4.20;1.00
7784;DHT22;19359;51.402;6.778;2024-03-17T01:20:31;4.10;1.00
7784;DHT22;19359;51.402;6.778;2024-03-17T01:23:00;4.20;1.00
7784;DHT22;19359;51.402;6.778;2024-03-17T01:25:26;4.10;1.00
7784;DHT22;19359;51.402;6.778;2024-03-17T01:27:53;4.10;1.00
7784;DHT22;19359;51.402;6.778;2024-03-17T01:30:20;4.10;1.00
7784;DHT22;19359;51.402;6.778;2024-03-17T01:32:47;4.10;1.00
7784;DHT22;19359;51.402;6.778;2024-03-17T01:35:17;4.10;1.00
7784;DHT22;19359;51.402;6.778;2024-03-17T01:37:44;4.10;1.00
7784;DHT22;19359;51.402;6.778;2024-03-17T01:40:11;4.10;1.00
7784;DHT22;19359;51.402;6.778;2024-03-17T01:42:38;4.10;1.00
7784;DHT22;19359;51.402;6.778;2024-03-17T01:45:20;4.10;1.00
7784;DHT22;19359;51.402;6.778;2024-03-17T01:47:53;4.10;1.00
7784;DHT22;19359;51.402;6.778;2024-03-17T01:52:52;4.00;1.00
7784;DHT22;19359;51.402;6.778;2024-03-17T01:55:19;3.90;1.00
7784;DHT22;19359;51.402;6.778;2024-03-17T01:57:48;3.90;1.00
7784;DHT22;19359;51.402;6.778;2024-03-17T02:00:16;3.80;1.00
7784;DHT22;19359;51.402;6.778;2024-03-17T02:02:42;3.80;1.00
7784;DHT22;19359;51.402;6.778;2024-03-17T02:05:10;3.80;1.00
7784;DHT22;19359;51.402;6.778;2024-03-17T02:07:36;3.70;1.00
7784;DHT22;19359;51.402;6.778;2024-03-17T02:10:04;3.70;1.00
7784;DHT22;19359;51.402;6.778;2024-03-17T02:12:31;3.70;1.00
7784;DHT22;19359;51.402;6.778;2024-03-17T02:14:58;3.70;1.00
7784;DHT22;19359;51.402;6.778;2024-03-17T02:17:24;3.70;1.00
7784;DHT22;19359;51.402;6.778;2024-03-17T02:19:52;3.60;1.00
7784;DHT22;19359;51.402;6.778;2024-03-17T02:22:20;3.60;1.00
7784;DHT22;19359;51.402;6.778;2024-03-17T02:27:13;3.60;1.00
7784;DHT22;19359;51.402;6.778;2024-03-17T02:29:40;3.60;1.00
7784;DHT22;19359;51.402;6.778;2024-03-17T02:32:06;3.60;1.00
7784;DHT22;19359;51.402;6.778;2024-03-17T02:34:33;3.50;1.00
7784;DHT22;19359;51.402;6.778;2024-03-17T02:37:00;3.50;1.00
7784;DHT22;19359;51.402;6.778;2024-03-17T02:39:28;3.50;1.00
7784;DHT22;19359;51.402;6.778;2024-03-17T02:42:00;3.50;1.00
7784;DHT22;19359;51.402;6.778;2024-03-17T02:44:26;3.40;1.00
7784;DHT22;19359;51.402;6.778;2024-03-17T02:46:52;3.40;1.00
7784;DHT22;19359;51.402;6.778;2024-03-17T02:49:19;3.30;1.00
7784;DHT22;19359;51.402;6.778;2024-03-17T02:51:46;3.30;1.00
7784;DHT22;19359;51.402;6.778;2024-03-17T02:54:12;3.40;1.00
7784;DHT22;19359;51.402;6.778;2024-03-17T02:56:41;3.30;1.00
7784;DHT22;19359;51.402;6.778;2024-03-17T02:59:07;3.30;1.00
7784;DHT22;19359;51.402;6.778;2024-03-17T03:01:35;3.20;1.00
7784;DHT22;19359;51.402;6.778;2024-03-17T03:04:01;3.20;1.00
7784;DHT22;19359;51.402;6.778;2024-03-17T03:06:28;3.20;1.00
7784;DHT22;19359;51.402;6.778;2024-03-17T03:08:55;3.20;1.00
7784;DHT22;19359;51.402;6.778;2024-03-17T03:11:22;3.20;1.00
7784;DHT22;19359;51.402;6.778;2024-03-17T03:13:51;3.10;1.00
7784;DHT22;19359;51.402;6.778;2024-03-17T03:16:17;3.10;1.00
7784;DHT22;19359;51.402;6.778;2024-03-17T03:18:45;3.10;1.00
7784;DHT22;19359;51.402;6.778;2024-03-17T03:21:11;3.10;1.00
7784;DHT22;19359;51.402;6.778;2024-03-17T03:23:39;3.10;1.00
7784;DHT22;19359;51.402;6.778;2024-03-17T03:26:05;3.10;1.00
7784;DHT22;19359;51.402;6.778;2024-03-17T03:28:35;3.10;1.00
7784;DHT22;19359;51.402;6.778;2024-03-17T03:31:04;3.00;1.00
7784;DHT22;19359;51.402;6.778;2024-03-17T03:33:32;3.00;1.00
7784;DHT22;19359;51.402;6.778;2024-03-17T03:35:59;3.00;1.00
7784;DHT22;19359;51.402;6.778;2024-03-17T03:38:33;3.00;1.00
7784;DHT22;19359;51.402;6.778;2024-03-17T03:41:06;3.00;1.00
7784;DHT22;19359;51.402;6.778;2024-03-17T03:43:33;3.00;1.00
7784;DHT22;19359;51.402;6.778;2024-03-17T03:46:00;3.00;1.00
7784;DHT22;19359;51.402;6.778;2024-03-17T03:48:30;3.00;1.00
7784;DHT22;19359;51.402;6.778;2024-03-17T03:50:57;3.00;1.00
7784;DHT22;19359;51.402;6.778;2024-03-17T03:53:24;3.00;1.00
7784;DHT22;19359;51.402;6.778;2024-03-17T03:55:51;3.50;1.00
7784;DHT22;19359;51.402;6.778;2024-03-17T03:58:18;2.90;1.00
7784;DHT22;19359;51.402;6.778;2024-03-17T04:00:46;3.00;1.00
7784;DHT22;19359;51.402;6.778;2024-03-17T04:03:13;2.90;1.00
7784;DHT22;19359;51.402;6.778;2024-03-17T04:05:42;2.90;1.00
7784;DHT22;19359;51.402;6.778;2024-03-17T04:08:09;3.00;1.00
7784;DHT22;19359;51.402;6.778;2024-03-17T04:10:36;3.00;1.00
7784;DHT22;19359;51.402;6.778;2024-03-17T04:13:03;3.00;1.00
7784;DHT22;19359;51.402;6.778;2024-03-17T04:15:30;2.90;1.00
7784;DHT22;19359;51.402;6.778;2024-03-17T04:17:57;2.90;1.00
7784;DHT22;19359;51.402;6.778;2024-03-17T04:20:24;2.90;1.00
7784;DHT22;19359;51.402;6.778;2024-03-17T04:22:52;2.90;1.00
7784;DHT22;19359;51.402;6.778;2024-03-17T04:27:50;3.00;1.00
7784;DHT22;19359;51.402;6.778;2024-03-17T04:30:17;2.90;1.00
7784;DHT22;19359;51.402;6.778;2024-03-17T04:32:43;3.00;1.00
7784;DHT22;19359;51.402;6.778;2024-03-17T04:35:10;3.00;1.00
7784;DHT22;19359;51.402;6.778;2024-03-17T04:37:38;2.90;1.00
7784;DHT22;19359;51.402;6.778;2024-03-17T04:40:08;2.90;1.00
7784;DHT22;19359;51.402;6.778;2024-03-17T04:42:39;3.00;1.00
7784;DHT22;19359;51.402;6.778;2024-03-17T04:45:07;3.00;1.00
7784;DHT22;19359;51.402;6.778;2024-03-17T04:47:36;3.00;1.00
7784;DHT22;19359;51.402;6.778;2024-03-17T04:50:05;3.00;1.00
7784;DHT22;19359;51.402;6.778;2024-03-17T04:52:33;3.10;1.00
7784;DHT22;19359;51.402;6.778;2024-03-17T04:54:59;3.10;1.20
7784;DHT22;19359;51.402;6.778;2024-03-17T04:57:27;3.10;3.90
7784;DHT22;19359;51.402;6.778;2024-03-17T04:59:54;3.00;3.60
7784;DHT22;19359;51.402;6.778;2024-03-17T05:02:21;3.00;4.00
7784;DHT22;19359;51.402;6.778;2024-03-17T05:04:49;3.00;4.80
7784;DHT22;19359;51.402;6.778;2024-03-17T05:07:16;3.00;12.40
7784;DHT22;19359;51.402;6.778;2024-03-17T05:09:42;3.00;11.40
7784;DHT22;19359;51.402;6.778;2024-03-17T05:12:10;3.10;20.40
7784;DHT22;19359;51.402;6.778;2024-03-17T05:14:39;3.10;26.90
7784;DHT22;19359;51.402;6.778;2024-03-17T05:17:06;3.20;25.50
7784;DHT22;19359;51.402;6.778;2024-03-17T05:19:33;3.20;31.90
7784;DHT22;19359;51.402;6.778;2024-03-17T05:22:00;3.10;24.50
7784;DHT22;19359;51.402;6.778;2024-03-17T05:24:26;3.20;26.10
7784;DHT22;19359;51.402;6.778;2024-03-17T05:26:53;3.20;26.50
7784;DHT22;19359;51.402;6.778;2024-03-17T05:29:20;3.20;35.80
7784;DHT22;19359;51.402;6.778;2024-03-17T05:31:55;3.30;39.80
7784;DHT22;19359;51.402;6.778;2024-03-17T05:34:22;3.30;48.50
7784;DHT22;19359;51.402;6.778;2024-03-17T05:36:50;3.40;55.30
7784;DHT22;19359;51.402;6.778;2024-03-17T05:39:17;3.60;64.30
7784;DHT22;19359;51.402;6.778;2024-03-17T05:41:43;3.40;74.40
7784;DHT22;19359;51.402;6.778;2024-03-17T05:44:14;3.50;68.80
7784;DHT22;19359;51.402;6.778;2024-03-17T05:46:40;3.50;80.60
7784;DHT22;19359;51.402;6.778;2024-03-17T05:49:09;3.60;87.20
7784;DHT22;19359;51.402;6.778;2024-03-17T05:51:36;3.60;93.90
7784;DHT22;19359;51.402;6.778;2024-03-17T05:54:04;3.60;99.90
7784;DHT22;19359;51.402;6.778;2024-03-17T05:56:30;3.80;99.90
7784;DHT22;19359;51.402;6.778;2024-03-17T05:58:57;3.80;99.90
7784;DHT22;19359;51.402;6.778;2024-03-17T06:01:24;3.80;99.90
7784;DHT22;19359;51.402;6.778;2024-03-17T06:03:51;3.90;99.90
7784;DHT22;19359;51.402;6.778;2024-03-17T06:06:19;3.90;99.90
7784;DHT22;19359;51.402;6.778;2024-03-17T06:08:45;3.90;99.90
7784;DHT22;19359;51.402;6.778;2024-03-17T06:11:12;4.00;99.90
7784;DHT22;19359;51.402;6.778;2024-03-17T06:16:07;4.10;99.90
7784;DHT22;19359;51.402;6.778;2024-03-17T06:18:34;4.10;99.90
7784;DHT22;19359;51.402;6.778;2024-03-17T06:21:05;4.20;99.90
7784;DHT22;19359;51.402;6.778;2024-03-17T06:23:33;4.40;99.90
7784;DHT22;19359;51.402;6.778;2024-03-17T06:26:00;4.50;99.90
7784;DHT22;19359;51.402;6.778;2024-03-17T06:28:31;4.50;99.90
7784;DHT22;19359;51.402;6.778;2024-03-17T06:30:58;4.60;99.90
7784;DHT22;19359;51.402;6.778;2024-03-17T06:38:22;4.90;99.90
7784;DHT22;19359;51.402;6.778;2024-03-17T06:40:51;5.00;99.90
7784;DHT22;19359;51.402;6.778;2024-03-17T06:43:18;5.30;99.90
7784;DHT22;19359;51.402;6.778;2024-03-17T06:45:54;5.30;99.90
7784;DHT22;19359;51.402;6.778;2024-03-17T06:48:21;5.50;99.90
7784;DHT22;19359;51.402;6.778;2024-03-17T06:50:48;5.70;43.60
7784;DHT22;19359;51.402;6.778;2024-03-17T06:53:17;5.70;1.00
7784;DHT22;19359;51.402;6.778;2024-03-17T06:55:52;5.90;1.00
7784;DHT22;19359;51.402;6.778;2024-03-17T06:58:20;6.10;1.00
7784;DHT22;19359;51.402;6.778;2024-03-17T07:00:53;6.20;1.00
7784;DHT22;19359;51.402;6.778;2024-03-17T07:03:19;6.30;1.00
7784;DHT22;19359;51.402;6.778;2024-03-17T07:05:51;6.50;1.00
7784;DHT22;19359;51.402;6.778;2024-03-17T07:08:21;6.50;1.00
7784;DHT22;19359;51.402;6.778;2024-03-17T07:11:00;6.60;1.00
7784;DHT22;19359;51.402;6.778;2024-03-17T07:13:29;6.70;1.00
7784;DHT22;19359;51.402;6.778;2024-03-17T07:15:56;6.90;1.00
7784;DHT22;19359;51.402;6.778;2024-03-17T07:18:25;6.80;1.00
7784;DHT22;19359;51.402;6.778;2024-03-17T07:20:53;7.00;1.00
7784;DHT22;19359;51.402;6.778;2024-03-17T07:23:19;7.00;1.00
7784;DHT22;19359;51.402;6.778;2024-03-17T07:25:53;7.10;1.00
7784;DHT22;19359;51.402;6.778;2024-03-17T07:28:22;7.10;1.00
7784;DHT22;19359;51.402;6.778;2024-03-17T07:30:49;7.20;1.00
7784;DHT22;19359;51.402;6.778;2024-03-17T07:33:16;7.10;1.00
7784;DHT22;19359;51.402;6.778;2024-03-17T07:35:47;7.20;1.00
7784;DHT22;19359;51.402;6.778;2024-03-17T07:38:14;7.30;1.00
7784;DHT22;19359;51.402;6.778;2024-03-17T07:40:42;7.30;1.00
7784;DHT22;19359;51.402;6.778;2024-03-17T07:43:09;7.50;1.00
7784;DHT22;19359;51.402;6.778;2024-03-17T07:45:37;7.70;1.00
7784;DHT22;19359;51.402;6.778;2024-03-17T07:48:04;7.70;1.00
7784;DHT22;19359;51.402;6.778;2024-03-17T07:50:31;8.00;1.00
7784;DHT22;19359;51.402;6.778;2024-03-17T07:53:00;8.20;1.00
7784;DHT22;19359;51.402;6.778;2024-03-17T07:55:28;8.20;1.00
7784;DHT22;19359;51.402;6.778;2024-03-17T07:57:56;8.30;1.00
7784;DHT22;19359;51.402;6.778;2024-03-17T08:00:22;8.30;1.00
7784;DHT22;19359;51.402;6.778;2024-03-17T08:02:50;8.30;1.00
7784;DHT22;19359;51.402;6.778;2024-03-17T08:05:18;8.20;1.00
7784;DHT22;19359;51.402;6.778;2024-03-17T08:07:44;8.20;1.00
7784;DHT22;19359;51.402;6.778;2024-03-17T08:10:11;8.20;1.00
7784;DHT22;19359;51.402;6.778;2024-03-17T08:12:38;8.20;1.00
7784;DHT22;19359;51.402;6.778;2024-03-17T08:15:05;8.40;1.00
7784;DHT22;19359;51.402;6.778;2024-03-17T08:17:32;8.60;1.00
7784;DHT22;19359;51.402;6.778;2024-03-17T08:20:00;8.80;1.00
7784;DHT22;19359;51.402;6.778;2024-03-17T08:22:27;8.80;1.00
7784;DHT22;19359;51.402;6.778;2024-03-17T08:24:54;9.30;1.00
7784;DHT22;19359;51.402;6.778;2024-03-17T08:27:21;9.40;1.00
7784;DHT22;19359;51.402;6.778;2024-03-17T08:29:48;9.70;1.00
7784;DHT22;19359;51.402;6.778;2024-03-17T08:32:15;9.70;1.00
7784;DHT22;19359;51.402;6.778;2024-03-17T08:34:46;9.80;1.00
7784;DHT22;19359;51.402;6.778;2024-03-17T08:37:14;9.90;1.00
7784;DHT22;19359;51.402;6.778;2024-03-17T08:39:41;9.90;1.00
7784;DHT22;19359;51.402;6.778;2024-03-17T08:42:08;10.10;1.00
7784;DHT22;19359;51.402;6.778;2024-03-17T08:44:34;10.10;1.00
7784;DHT22;19359;51.402;6.778;2024-03-17T08:47:01;10.20;1.00
7784;DHT22;19359;51.402;6.778;2024-03-17T08:49:28;10.20;1.00
7784;DHT22;19359;51.402;6.778;2024-03-17T08:51:55;10.20;1.00
7784;DHT22;19359;51.402;6.778;2024-03-17T08:54:23;10.20;1.00
7784;DHT22;19359;51.402;6.778;2024-03-17T08:56:50;10.20;1.00
7784;DHT22;19359;51.402;6.778;2024-03-17T08:59:17;10.30;1.00
7784;DHT22;19359;51.402;6.778;2024-03-17T09:01:43;10.20;1.00
7784;DHT22;19359;51.402;6.778;2024-03-17T09:04:10;10.30;1.00
7784;DHT22;19359;51.402;6.778;2024-03-17T09:09:04;10.30;1.00
7784;DHT22;19359;51.402;6.778;2024-03-17T09:11:33;10.30;1.00
7784;DHT22;19359;51.402;6.778;2024-03-17T09:14:00;10.30;1.00
7784;DHT22;19359;51.402;6.778;2024-03-17T09:16:27;10.30;1.00
7784;DHT22;19359;51.402;6.778;2024-03-17T09:18:56;10.40;1.00
7784;DHT22;19359;51.402;6.778;2024-03-17T09:21:22;10.40;1.00
7784;DHT22;19359;51.402;6.778;2024-03-17T09:23:49;10.40;1.00
7784;DHT22;19359;51.402;6.778;2024-03-17T09:26:16;10.50;1.00
7784;DHT22;19359;51.402;6.778;2024-03-17T09:28:44;10.60;1.00
7784;DHT22;19359;51.402;6.778;2024-03-17T09:31:12;10.60;1.00
7784;DHT22;19359;51.402;6.778;2024-03-17T09:33:38;10.60;1.00
7784;DHT22;19359;51.402;6.778;2024-03-17T09:36:07;10.80;1.00
7784;DHT22;19359;51.402;6.778;2024-03-17T09:38:34;10.90;1.00
7784;DHT22;19359;51.402;6.778;2024-03-17T09:41:02;10.90;1.00
7784;DHT22;19359;51.402;6.778;2024-03-17T09:43:29;10.90;1.00
7784;DHT22;19359;51.402;6.778;2024-03-17T09:46:02;11.00;1.00
7784;DHT22;19359;51.402;6.778;2024-03-17T09:48:29;11.00;1.00
7784;DHT22;19359;51.402;6.778;2024-03-17T09:50:57;11.10;1.00
7784;DHT22;19359;51.402;6.778;2024-03-17T09:53:25;11.10;1.00
7784;DHT22;19359;51.402;6.778;2024-03-17T09:55:55;11.20;1.00
7784;DHT22;19359;51.402;6.778;2024-03-17T09:58:23;11.20;1.00
7784;DHT22;19359;51.402;6.778;2024-03-17T10:00:50;11.20;1.00
7784;DHT22;19359;51.402;6.778;2024-03-17T10:03:42;11.30;1.00
7784;DHT22;19359;51.402;6.778;2024-03-17T10:06:10;11.40;1.00
7784;DHT22;19359;51.402;6.778;2024-03-17T10:08:42;11.40;1.00
7784;DHT22;19359;51.402;6.778;2024-03-17T10:11:09;11.50;1.00
7784;DHT22;19359;51.402;6.778;2024-03-17T10:13:36;11.50;1.00
7784;DHT22;19359;51.402;6.778;2024-03-17T10:16:03;11.60;1.00
7784;DHT22;19359;51.402;6.778;2024-03-17T10:18:30;11.70;1.00
7784;DHT22;19359;51.402;6.778;2024-03-17T10:20:58;11.70;1.00
7784;DHT22;19359;51.402;6.778;2024-03-17T10:23:27;11.80;1.00
7784;DHT22;19359;51.402;6.778;2024-03-17T10:25:53;11.70;1.00
7784;DHT22;19359;51.402;6.778;2024-03-17T10:28:21;11.70;1.00
7784;DHT22;19359;51.402;6.778;2024-03-17T10:30:57;11.70;1.00
7784;DHT22;19359;51.402;6.778;2024-03-17T10:33:25;11.70;1.00
7784;DHT22;19359;51.402;6.778;2024-03-17T10:36:00;11.70;1.00
7784;DHT22;19359;51.402;6.778;2024-03-17T10:38:27;12.10;1.00
7784;DHT22;19359;51.402;6.778;2024-03-17T10:40:54;12.20;1.00
7784;DHT22;19359;51.402;6.778;2024-03-17T10:43:20;12.20;1.00
7784;DHT22;19359;51.402;6.778;2024-03-17T10:45:52;12.30;1.00
7784;DHT22;19359;51.402;6.778;2024-03-17T10:48:20;12.40;1.00
7784;DHT22;19359;51.402;6.778;2024-03-17T10:50:48;12.50;1.00
7784;DHT22;19359;51.402;6.778;2024-03-17T10:53:20;12.50;1.00
7784;DHT22;19359;51.402;6.778;2024-03-17T10:55:59;12.60;1.00
7784;DHT22;19359;51.402;6.778;2024-03-17T10:58:33;12.60;1.00
7784;DHT22;19359;51.402;6.778;2024-03-17T11:01:01;12.80;1.00
7784;DHT22;19359;51.402;6.778;2024-03-17T11:03:34;13.00;1.00
7784;DHT22;19359;51.402;6.778;2024-03-17T11:06:03;13.00;1.00
7784;DHT22;19359;51.402;6.778;2024-03-17T11:08:32;13.00;1.00
7784;DHT22;19359;51.402;6.778;2024-03-17T11:11:00;13.10;1.00
7784;DHT22;19359;51.402;6.778;2024-03-17T11:13:27;13.20;1.00
7784;DHT22;19359;51.402;6.778;2024-03-17T11:15:55;13.20;1.00
7784;DHT22;19359;51.402;6.778;2024-03-17T11:18:37;13.10;1.00
7784;DHT22;19359;51.402;6.778;2024-03-17T11:21:19;13.20;1.00
7784;DHT22;19359;51.402;6.778;2024-03-17T11:23:59;13.50;1.00
7784;DHT22;19359;51.402;6.778;2024-03-17T11:26:27;13.80;1.00
7784;DHT22;19359;51.402;6.778;2024-03-17T11:28:54;14.00;1.00
7784;DHT22;19359;51.402;6.778;2024-03-17T11:31:40;14.00;1.00
7784;DHT22;19359;51.402;6.778;2024-03-17T11:37:01;14.10;1.00
7784;DHT22;19359;51.402;6.778;2024-03-17T11:39:50;14.50;1.00
7784;DHT22;19359;51.402;6.778;2024-03-17T11:44:57;14.50;1.00
7784;DHT22;19359;51.402;6.778;2024-03-17T11:47:33;14.50;1.00
7784;DHT22;19359;51.402;6.778;2024-03-17T11:50:02;14.70;1.00
7784;DHT22;19359;51.402;6.778;2024-03-17T11:52:30;14.90;1.00
7784;DHT22;19359;51.402;6.778;2024-03-17T11:54:57;14.80;1.00
7784;DHT22;19359;51.402;6.778;2024-03-17T11:57:24;15.00;1.00
7784;DHT22;19359;51.402;6.778;2024-03-17T11:59:51;14.90;1.00
7784;DHT22;19359;51.402;6.778;2024-03-17T12:02:21;14.90;1.00
7784;DHT22;19359;51.402;6.778;2024-03-17T12:04:48;15.10;1.00
7784;DHT22;19359;51.402;6.778;2024-03-17T12:07:16;15.10;1.00
7784;DHT22;19359;51.402;6.778;2024-03-17T12:09:43;15.10;1.00
7784;DHT22;19359;51.402;6.778;2024-03-17T12:12:17;15.00;1.00
7784;DHT22;19359;51.402;6.778;2024-03-17T12:14:42;15.10;1.00
7784;DHT22;19359;51.402;6.778;2024-03-17T12:17:11;15.20;1.00
7784;DHT22;19359;51.402;6.778;2024-03-17T12:19:37;15.30;1.00
7784;DHT22;19359;51.402;6.778;2024-03-17T12:22:05;15.30;1.00
7784;DHT22;19359;51.402;6.778;2024-03-17T12:24:32;15.50;1.00
7784;DHT22;19359;51.402;6.778;2024-03-17T12:27:01;15.50;1.00
7784;DHT22;19359;51.402;6.778;2024-03-17T12:29:31;15.70;1.00
7784;DHT22;19359;51.402;6.778;2024-03-17T12:32:02;15.90;1.00
7784;DHT22;19359;51.402;6.778;2024-03-17T12:34:30;15.90;1.00
7784;DHT22;19359;51.402;6.778;2024-03-17T12:36:58;15.90;1.00
7784;DHT22;19359;51.402;6.778;2024-03-17T12:39:26;15.90;1.00
7784;DHT22;19359;51.402;6.778;2024-03-17T12:42:04;15.90;1.00
7784;DHT22;19359;51.402;6.778;2024-03-17T12:44:32;15.90;1.00
7784;DHT22;19359;51.402;6.778;2024-03-17T12:47:00;15.90;1.00
7784;DHT22;19359;51.402;6.778;2024-03-17T12:49:27;15.80;1.00
7784;DHT22;19359;51.402;6.778;2024-03-17T12:51:54;15.80;1.00
7784;DHT22;19359;51.402;6.778;2024-03-17T12:54:22;15.80;1.00
7784;DHT22;19359;51.402;6.778;2024-03-17T12:56:50;15.80;1.00
7784;DHT22;19359;51.402;6.778;2024-03-17T12:59:42;15.90;1.00
7784;DHT22;19359;51.402;6.778;2024-03-17T13:02:27;16.20;1.00
7784;DHT22;19359;51.402;6.778;2024-03-17T13:05:21;16.20;1.00
7784;DHT22;19359;51.402;6.778;2024-03-17T13:07:49;15.90;1.00
7784;DHT22;19359;51.402;6.778;2024-03-17T13:10:17;15.90;1.00
7784;DHT22;19359;51.402;6.778;2024-03-17T13:12:44;15.80;1.00
7784;DHT22;19359;51.402;6.778;2024-03-17T13:15:14;15.40;1.00
7784;DHT22;19359;51.402;6.778;2024-03-17T13:17:41;15.40;1.00
7784;DHT22;19359;51.402;6.778;2024-03-17T13:20:12;15.40;1.00
7784;DHT22;19359;51.402;6.778;2024-03-17T13:22:40;15.50;1.00
7784;DHT22;19359;51.402;6.778;2024-03-17T13:25:14;15.60;1.00
7784;DHT22;19359;51.402;6.778;2024-03-17T13:27:41;15.60;1.00
7784;DHT22;19359;51.402;6.778;2024-03-17T13:30:09;15.50;1.00
7784;DHT22;19359;51.402;6.778;2024-03-17T13:32:37;15.50;1.00
7784;DHT22;19359;51.402;6.778;2024-03-17T13:35:05;15.40;1.00
7784;DHT22;19359;51.402;6.778;2024-03-17T13:37:34;15.30;1.00
7784;DHT22;19359;51.402;6.778;2024-03-17T13:40:00;15.20;1.00
7784;DHT22;19359;51.402;6.778;2024-03-17T13:42:30;15.10;1.00
7784;DHT22;19359;51.402;6.778;2024-03-17T13:44:57;15.10;1.00
7784;DHT22;19359;51.402;6.778;2024-03-17T13:47:23;15.00;1.00
7784;DHT22;19359;51.402;6.778;2024-03-17T13:49:51;14.90;1.00
7784;DHT22;19359;51.402;6.778;2024-03-17T13:52:18;14.80;1.00
7784;DHT22;19359;51.402;6.778;2024-03-17T13:54:45;14.70;1.00
7784;DHT22;19359;51.402;6.778;2024-03-17T13:57:11;14.60;1.00
7784;DHT22;19359;51.402;6.778;2024-03-17T13:59:38;14.60;1.00
7784;DHT22;19359;51.402;6.778;2024-03-17T14:02:08;14.60;1.00
7784;DHT22;19359;51.402;6.778;2024-03-17T14:04:38;14.60;1.00
7784;DHT22;19359;51.402;6.778;2024-03-17T14:07:06;14.60;1.00
7784;DHT22;19359;51.402;6.778;2024-03-17T14:09:33;14.60;1.00
7784;DHT22;19359;51.402;6.778;2024-03-17T14:11:59;14.60;1.00
7784;DHT22;19359;51.402;6.778;2024-03-17T14:14:26;14.60;1.00
7784;DHT22;19359;51.402;6.778;2024-03-17T14:16:53;14.50;1.00
7784;DHT22;19359;51.402;6.778;2024-03-17T14:19:20;14.50;1.00
7784;DHT22;19359;51.402;6.778;2024-03-17T14:21:47;14.50;1.00
7784;DHT22;19359;51.402;6.778;2024-03-17T14:24:15;14.50;1.00
7784;DHT22;19359;51.402;6.778;2024-03-17T14:26:41;14.40;1.00
7784;DHT22;19359;51.402;6.778;2024-03-17T14:29:08;14.40;1.00
7784;DHT22;19359;51.402;6.778;2024-03-17T14:31:35;14.40;1.00
7784;DHT22;19359;51.402;6.778;2024-03-17T14:34:03;14.40;1.00
7784;DHT22;19359;51.402;6.778;2024-03-17T14:36:31;14.40;1.00
7784;DHT22;19359;51.402;6.778;2024-03-17T14:38:58;14.40;1.00
7784;DHT22;19359;51.402;6.778;2024-03-17T14:41:29;14.40;1.00
7784;DHT22;19359;51.402;6.778;2024-03-17T14:43:56;14.30;1.00
7784;DHT22;19359;51.402;6.778;2024-03-17T14:46:23;14.30;1.00
7784;DHT22;19359;51.402;6.778;2024-03-17T14:48:50;14.40;1.00
7784;DHT22;19359;51.402;6.778;2024-03-17T14:51:17;14.40;1.00
7784;DHT22;19359;51.402;6.778;2024-03-17T14:53:44;14.40;1.00
7784;DHT22;19359;51.402;6.778;2024-03-17T14:56:15;14.40;1.00
7784;DHT22;19359;51.402;6.778;2024-03-17T14:58:44;14.50;1.00
7784;DHT22;19359;51.402;6.778;2024-03-17T15:01:13;14.60;1.00
7784;DHT22;19359;51.402;6.778;2024-03-17T15:03:39;14.60;1.00
7784;DHT22;19359;51.402;6.778;2024-03-17T15:06:11;14.70;1.00
7784;DHT22;19359;51.402;6.778;2024-03-17T15:08:38;14.70;1.00
7784;DHT22;19359;51.402;6.778;2024-03-17T15:11:04;14.80;1.00
7784;DHT22;19359;51.402;6.778;2024-03-17T15:13:33;14.80;1.00
7784;DHT22;19359;51.402;6.778;2024-03-17T15:16:01;14.70;1.00
7784;DHT22;19359;51.402;6.778;2024-03-17T15:18:30;14.80;1.00
7784;DHT22;19359;51.402;6.778;2024-03-17T15:20:56;14.80;1.00
7784;DHT22;19359;51.402;6.778;2024-03-17T15:23:23;14.90;1.00
7784;DHT22;19359;51.402;6.778;2024-03-17T15:25:59;15.00;1.00
7784;DHT22;19359;51.402;6.778;2024-03-17T15:28:26;15.10;1.00
7784;DHT22;19359;51.402;6.778;2024-03-17T15:30:52;15.10;1.00
7784;DHT22;19359;51.402;6.778;2024-03-17T15:33:20;15.10;1.00
7784;DHT22;19359;51.402;6.778;2024-03-17T15:35:49;15.10;1.00
7784;DHT22;19359;51.402;6.778;2024-03-17T15:38:17;15.10;1.00
7784;DHT22;19359;51.402;6.778;2024-03-17T15:40:44;15.00;1.00
7784;DHT22;19359;51.402;6.778;2024-03-17T15:43:11;15.00;1.00
7784;DHT22;19359;51.402;6.778;2024-03-17T15:45:38;14.90;1.00
7784;DHT22;19359;51.402;6.778;2024-03-17T15:48:07;15.00;1.00
7784;DHT22;19359;51.402;6.778;2024-03-17T15:50:35;15.00;1.00
7784;DHT22;19359;51.402;6.778;2024-03-17T15:53:05;15.10;1.00
7784;DHT22;19359;51.402;6.778;2024-03-17T15:55:32;15.10;1.00
7784;DHT22;19359;51.402;6.778;2024-03-17T15:57:58;15.50;1.00
7784;DHT22;19359;51.402;6.778;2024-03-17T16:00:25;16.30;1.00
7784;DHT22;19359;51.402;6.778;2024-03-17T16:02:53;17.00;1.00
7784;DHT22;19359;51.402;6.778;2024-03-17T16:05:21;17.50;1.00
7784;DHT22;19359;51.402;6.778;2024-03-17T16:07:50;18.00;1.00
7784;DHT22;19359;51.402;6.778;2024-03-17T16:10:20;17.80;1.00
7784;DHT22;19359;51.402;6.778;2024-03-17T16:12:49;17.70;1.00
7784;DHT22;19359;51.402;6.778;2024-03-17T16:15:17;17.30;1.00
7784;DHT22;19359;51.402;6.778;2024-03-17T16:17:44;16.90;1.00
7784;DHT22;19359;51.402;6.778;2024-03-17T16:20:26;16.70;1.00
7784;DHT22;19359;51.402;6.778;2024-03-17T16:23:02;16.50;1.00
7784;DHT22;19359;51.402;6.778;2024-03-17T16:25:29;16.20;1.00
7784;DHT22;19359;51.402;6.778;2024-03-17T16:27:55;16.00;1.00
7784;DHT22;19359;51.402;6.778;2024-03-17T16:30:22;15.50;1.00
7784;DHT22;19359;51.402;6.778;2024-03-17T16:32:49;15.40;1.00
7784;DHT22;19359;51.402;6.778;2024-03-17T16:35:16;15.10;1.00
7784;DHT22;19359;51.402;6.778;2024-03-17T16:37:43;14.90;1.00
7784;DHT22;19359;51.402;6.778;2024-03-17T16:40:12;14.80;1.00